createdAt,value
2022-10-21T00:00:51.518Z,4.13
2022-10-21T00:03:19.668Z,4.40
2022-10-21T00:05:47.842Z,4.70
2022-10-21T00:08:19.952Z,4.43
2022-10-21T00:11:08.966Z,4.47
2022-10-21T00:13:39.822Z,4.50
2022-10-21T00:16:09.417Z,4.73
2022-10-21T00:18:38.213Z,4.87
2022-10-21T00:21:07.309Z,4.90
2022-10-21T00:23:36.896Z,4.30
2022-10-21T00:26:05.004Z,4.80
2022-10-21T00:28:33.038Z,5.00
2022-10-21T00:31:01.089Z,4.93
2022-10-21T00:33:29.379Z,4.70
2022-10-21T00:35:58.421Z,4.87
2022-10-21T00:38:26.702Z,4.97
2022-10-21T00:40:56.146Z,4.40
2022-10-21T00:43:24.295Z,5.00
2022-10-21T00:45:53.786Z,4.73
2022-10-21T00:48:25.611Z,4.60
2022-10-21T00:50:55.502Z,4.80
2022-10-21T00:53:23.584Z,4.10
2022-10-21T00:55:54.060Z,6.00
2022-10-21T00:58:25.227Z,4.83
2022-10-21T01:00:53.389Z,5.37
2022-10-21T01:03:21.698Z,4.87
2022-10-21T01:08:17.753Z,5.13
2022-10-21T01:10:45.902Z,4.50
2022-10-21T01:13:18.451Z,4.70
2022-10-21T01:15:51.770Z,4.30
2022-10-21T01:18:21.423Z,5.13
2022-10-21T01:21:08.224Z,4.97
2022-10-21T01:23:47.606Z,4.90
2022-10-21T01:26:38.481Z,4.70
2022-10-21T01:29:21.270Z,4.83
2022-10-21T01:31:52.919Z,5.03
2022-10-21T01:34:22.491Z,4.60
2022-10-21T01:36:53.084Z,4.70
2022-10-21T01:39:26.973Z,5.40
2022-10-21T01:41:56.801Z,4.80
2022-10-21T01:44:25.751Z,4.13
2022-10-21T01:46:58.099Z,5.10
2022-10-21T01:49:30.334Z,4.90
2022-10-21T01:51:58.447Z,5.00
2022-10-21T01:54:29.268Z,5.10
2022-10-21T01:56:57.388Z,5.17
2022-10-21T01:59:25.455Z,4.93
2022-10-21T02:01:55.060Z,5.30
2022-10-21T02:04:23.130Z,4.80
2022-10-21T02:06:51.200Z,5.07
2022-10-21T02:09:19.367Z,5.30
2022-10-21T02:11:54.005Z,5.10
2022-10-21T02:14:23.636Z,4.93
2022-10-21T02:16:51.948Z,5.00
2022-10-21T02:19:21.670Z,4.97
2022-10-21T02:21:50.885Z,4.80
2022-10-21T02:24:22.270Z,4.90
2022-10-21T02:26:50.352Z,5.03
2022-10-21T02:29:19.116Z,5.20
2022-10-21T02:32:03.594Z,5.30
2022-10-21T02:34:36.673Z,5.23
2022-10-21T02:37:09.344Z,5.00
2022-10-21T02:39:38.420Z,5.30
2022-10-21T02:42:08.337Z,4.83
2022-10-21T02:44:36.440Z,5.10
2022-10-21T02:47:04.728Z,5.70
2022-10-21T02:49:37.211Z,5.67
2022-10-21T02:52:11.108Z,4.73
2022-10-21T02:54:39.203Z,4.90
2022-10-21T02:57:07.391Z,5.00
2022-10-21T02:59:35.491Z,5.67
2022-10-21T03:02:03.582Z,4.80
2022-10-21T03:04:31.663Z,4.57
2022-10-21T03:07:01.131Z,4.97
2022-10-21T03:09:29.374Z,5.53
2022-10-21T03:12:00.118Z,5.30
2022-10-21T03:14:28.240Z,4.90
2022-10-21T03:16:56.272Z,5.10
2022-10-21T03:19:24.363Z,4.97
2022-10-21T03:21:52.483Z,5.23
2022-10-21T03:24:28.521Z,4.83
2022-10-21T03:26:57.102Z,5.20
2022-10-21T03:29:25.193Z,4.83
2022-10-21T03:31:53.318Z,4.70
2022-10-21T03:34:21.349Z,5.30
2022-10-21T03:36:49.486Z,4.87
2022-10-21T03:39:17.519Z,5.17
2022-10-21T03:41:46.952Z,4.70
2022-10-21T03:44:14.989Z,5.00
2022-10-21T03:46:43.051Z,5.00
2022-10-21T03:49:17.085Z,4.23
2022-10-21T03:51:49.368Z,4.87
2022-10-21T03:54:17.443Z,5.00
2022-10-21T03:56:46.900Z,4.77
2022-10-21T03:59:14.920Z,4.53
2022-10-21T04:01:52.048Z,4.63
2022-10-21T04:04:20.175Z,5.10
2022-10-21T04:06:48.197Z,4.33
2022-10-21T04:09:16.304Z,4.83
2022-10-21T04:11:44.390Z,4.33
2022-10-21T04:14:15.415Z,4.80
2022-10-21T04:16:43.902Z,4.30
2022-10-21T04:19:14.201Z,4.67
2022-10-21T04:21:42.249Z,4.30
2022-10-21T04:24:10.267Z,5.03
2022-10-21T04:26:38.412Z,4.53
2022-10-21T04:29:06.643Z,4.37
2022-10-21T04:31:36.096Z,4.20
2022-10-21T04:34:04.205Z,4.60
2022-10-21T04:36:32.247Z,5.00
2022-10-21T04:39:00.320Z,3.73
2022-10-21T04:41:28.358Z,5.00
2022-10-21T04:43:56.383Z,4.37
2022-10-21T04:46:24.397Z,4.53
2022-10-21T04:48:53.810Z,4.50
2022-10-21T04:51:22.008Z,4.00
2022-10-21T04:53:50.135Z,4.87
2022-10-21T04:56:18.210Z,4.70
2022-10-21T04:58:46.293Z,4.70
2022-10-21T05:01:14.427Z,4.43
2022-10-21T05:03:42.523Z,3.80
2022-10-21T05:06:11.926Z,4.47
2022-10-21T05:08:40.074Z,3.40
2022-10-21T05:11:08.214Z,4.60
2022-10-21T05:13:36.354Z,4.33
2022-10-21T05:16:08.117Z,4.37
2022-10-21T05:18:36.136Z,3.93
2022-10-21T05:21:04.324Z,3.97
2022-10-21T05:23:33.763Z,3.80
2022-10-21T05:26:01.820Z,4.20
2022-10-21T05:28:29.947Z,4.03
2022-10-21T05:30:57.983Z,4.33
2022-10-21T05:33:26.039Z,3.93
2022-10-21T05:35:58.825Z,4.53
2022-10-21T05:38:26.893Z,3.73
2022-10-21T05:40:56.346Z,3.83
2022-10-21T05:43:24.414Z,3.57
2022-10-21T05:45:52.436Z,3.20
2022-10-21T05:48:20.613Z,3.80
2022-10-21T05:50:48.704Z,3.40
2022-10-21T05:53:16.766Z,3.70
2022-10-21T05:55:44.851Z,4.30
2022-10-21T05:58:14.325Z,3.73
2022-10-21T06:00:42.440Z,3.90
2022-10-21T06:03:10.583Z,4.20
2022-10-21T06:05:38.608Z,3.50
2022-10-21T06:08:07.037Z,3.20
2022-10-21T06:10:35.090Z,3.60
2022-10-21T06:13:03.174Z,3.60
2022-10-21T06:15:32.705Z,3.60
2022-10-21T06:18:00.748Z,3.40
2022-10-21T06:20:28.957Z,3.17
2022-10-21T06:22:57.152Z,3.43
2022-10-21T06:25:25.247Z,3.57
2022-10-21T06:27:53.591Z,2.90
2022-10-21T06:30:23.034Z,3.60
2022-10-21T06:32:52.944Z,3.13
2022-10-21T06:35:21.040Z,3.50
2022-10-21T06:37:49.193Z,3.70
2022-10-21T06:40:17.438Z,3.67
2022-10-21T06:42:45.623Z,3.77
2022-10-21T06:45:14.357Z,3.63
2022-10-21T06:47:42.634Z,3.60
2022-10-21T06:50:13.906Z,3.30
2022-10-21T06:52:41.965Z,3.07
2022-10-21T06:55:10.413Z,3.57
2022-10-21T06:57:38.749Z,2.83
2022-10-21T07:00:07.983Z,3.87
2022-10-21T07:02:36.305Z,3.30
2022-10-21T07:05:05.018Z,3.20
2022-10-21T07:07:34.559Z,2.63
2022-10-21T07:10:02.615Z,3.40
2022-10-21T07:12:31.514Z,3.77
2022-10-21T07:14:59.877Z,3.50
2022-10-21T07:17:46.354Z,2.70
2022-10-21T07:20:14.442Z,2.90
2022-10-21T07:22:43.949Z,3.10
2022-10-21T07:25:13.693Z,3.30
2022-10-21T07:27:43.559Z,3.60
2022-10-21T07:30:14.350Z,3.00
2022-10-21T07:32:42.585Z,2.63
2022-10-21T07:35:18.891Z,3.33
2022-10-21T07:37:48.350Z,3.03
2022-10-21T07:40:16.415Z,3.43
2022-10-21T07:42:44.466Z,3.30
2022-10-21T07:45:12.764Z,3.20
2022-10-21T07:47:41.093Z,2.93
2022-10-21T07:50:10.054Z,3.30
2022-10-21T07:52:51.792Z,3.33
2022-10-21T07:55:30.271Z,2.93
2022-10-21T07:57:58.522Z,2.60
2022-10-21T08:00:26.588Z,2.70
2022-10-21T08:02:55.771Z,2.90
2022-10-21T08:05:23.909Z,3.20
2022-10-21T08:07:52.255Z,3.30
2022-10-21T08:10:20.494Z,3.33
2022-10-21T08:12:50.007Z,2.87
2022-10-21T08:15:18.196Z,2.70
2022-10-21T08:17:46.334Z,3.03
2022-10-21T08:20:14.513Z,3.00
2022-10-21T08:22:42.742Z,2.80
2022-10-21T08:25:11.795Z,2.97
2022-10-21T08:27:42.583Z,2.70
2022-10-21T08:30:12.473Z,2.90
2022-10-21T08:32:40.763Z,2.53
2022-10-21T08:35:09.684Z,3.03
2022-10-21T08:37:37.781Z,2.80
2022-10-21T08:40:07.258Z,2.80
2022-10-21T08:42:36.218Z,2.83
2022-10-21T08:45:14.404Z,2.70
2022-10-21T08:47:46.204Z,2.83
2022-10-21T08:50:15.028Z,2.80
2022-10-21T08:52:44.717Z,2.57
2022-10-21T08:55:20.289Z,2.60
2022-10-21T08:57:48.847Z,2.63
2022-10-21T09:00:19.395Z,2.40
2022-10-21T09:03:14.222Z,2.57
2022-10-21T09:05:57.209Z,3.00
2022-10-21T09:08:27.974Z,2.90
2022-10-21T09:11:02.564Z,2.90
2022-10-21T09:13:41.330Z,3.33
2022-10-21T09:16:10.927Z,2.83
2022-10-21T09:18:48.092Z,2.97
2022-10-21T09:21:20.009Z,2.80
2022-10-21T09:24:01.593Z,3.30
2022-10-21T09:26:36.695Z,2.70
2022-10-21T09:29:26.566Z,2.97
2022-10-21T09:31:58.626Z,2.70
2022-10-21T09:34:48.085Z,3.03
2022-10-21T09:37:21.129Z,2.77
2022-10-21T09:39:51.427Z,2.93
2022-10-21T09:42:42.341Z,2.83
2022-10-21T09:45:08.574Z,2.83
2022-10-21T09:47:36.672Z,2.43
2022-10-21T09:50:07.842Z,3.10
2022-10-21T09:52:37.202Z,2.87
2022-10-21T09:55:06.709Z,2.90
2022-10-21T09:57:40.951Z,2.73
2022-10-21T10:00:12.839Z,2.50
2022-10-21T10:02:44.126Z,2.90
2022-10-21T10:05:36.238Z,2.90
2022-10-21T10:08:22.999Z,2.47
2022-10-21T10:10:51.212Z,3.07
2022-10-21T10:13:25.180Z,3.07
2022-10-21T10:15:55.535Z,3.10
2022-10-21T10:18:23.763Z,2.50
2022-10-21T10:21:08.220Z,2.80
2022-10-21T10:23:44.576Z,2.97
2022-10-21T10:26:12.936Z,2.83
2022-10-21T10:31:10.101Z,2.40
2022-10-21T10:33:38.190Z,2.60
2022-10-21T10:36:09.768Z,3.03
2022-10-21T10:38:38.987Z,2.93
2022-10-21T10:41:08.193Z,2.67
2022-10-21T10:43:36.707Z,2.93
2022-10-21T10:46:06.091Z,2.70
2022-10-21T10:48:37.307Z,2.60
2022-10-21T10:51:24.668Z,2.80
2022-10-21T10:54:01.590Z,2.90
2022-10-21T10:56:30.652Z,2.53
2022-10-21T10:59:15.785Z,2.57
2022-10-21T11:01:47.623Z,2.90
2022-10-21T11:04:18.005Z,2.83
2022-10-21T11:06:49.196Z,2.37
2022-10-21T11:09:17.261Z,2.70
2022-10-21T11:11:46.325Z,2.87
2022-10-21T11:14:18.869Z,2.53
2022-10-21T11:17:02.195Z,2.90
2022-10-21T11:19:33.709Z,2.63
2022-10-21T11:22:09.124Z,2.80
2022-10-21T11:24:51.570Z,3.00
2022-10-21T11:27:28.644Z,2.73
2022-10-21T11:30:02.030Z,2.23
2022-10-21T11:32:36.311Z,2.80
2022-10-21T11:35:14.515Z,2.87
2022-10-21T11:37:54.044Z,2.47
2022-10-21T11:40:33.903Z,2.20
2022-10-21T11:43:06.660Z,2.60
2022-10-21T11:45:49.443Z,2.63
2022-10-21T11:48:24.855Z,2.40
2022-10-21T11:50:59.498Z,2.50
2022-10-21T11:53:39.343Z,2.40
2022-10-21T11:56:12.940Z,2.47
2022-10-21T11:58:46.461Z,2.70
2022-10-21T12:01:25.332Z,2.40
2022-10-21T12:04:15.871Z,2.50
2022-10-21T12:06:46.997Z,2.50
2022-10-21T12:09:18.460Z,2.40
2022-10-21T12:11:49.773Z,2.57
2022-10-21T12:14:38.939Z,2.30
2022-10-21T12:17:08.397Z,2.63
2022-10-21T12:19:36.555Z,2.30
2022-10-21T12:22:04.634Z,2.40
2022-10-21T12:24:44.402Z,2.70
2022-10-21T12:27:18.065Z,2.70
2022-10-21T12:29:58.089Z,2.20
2022-10-21T12:32:29.695Z,2.70
2022-10-21T12:34:57.763Z,2.40
2022-10-21T12:37:46.678Z,2.70
2022-10-21T12:40:17.466Z,2.40
2022-10-21T12:42:47.305Z,2.63
2022-10-21T12:45:28.637Z,2.30
2022-10-21T12:47:57.217Z,2.77
2022-10-21T12:50:38.297Z,2.13
2022-10-21T12:53:23.532Z,2.13
2022-10-21T12:55:53.900Z,2.40
2022-10-21T12:58:28.112Z,2.47
2022-10-21T13:00:57.896Z,2.30
2022-10-21T13:03:51.546Z,2.23
2022-10-21T13:06:45.116Z,2.10
2022-10-21T13:09:36.591Z,2.53
2022-10-21T13:12:13.962Z,2.20
2022-10-21T13:14:45.464Z,2.27
2022-10-21T13:17:53.683Z,2.80
2022-10-21T13:20:49.493Z,2.27
2022-10-21T13:23:39.269Z,2.63
2022-10-21T13:26:15.010Z,2.37
2022-10-21T13:28:43.121Z,2.80
2022-10-21T13:31:11.177Z,2.40
2022-10-21T13:33:39.635Z,2.40
2022-10-21T13:36:11.540Z,2.03
2022-10-21T13:38:47.933Z,2.40
2022-10-21T13:41:26.241Z,2.07
2022-10-21T13:43:55.769Z,2.37
2022-10-21T13:46:26.740Z,2.47
2022-10-21T13:48:55.054Z,2.10
2022-10-21T13:51:25.196Z,2.00
2022-10-21T13:53:55.469Z,2.10
2022-10-21T13:56:25.581Z,1.83
2022-10-21T13:58:54.221Z,1.80
2022-10-21T14:01:25.379Z,2.20
2022-10-21T14:03:57.565Z,2.20
2022-10-21T14:06:36.082Z,2.20
2022-10-21T14:09:08.137Z,2.10
2022-10-21T14:11:51.099Z,2.53
2022-10-21T14:14:20.584Z,2.13
2022-10-21T14:16:49.797Z,1.77
2022-10-21T14:19:19.879Z,2.53
2022-10-21T14:21:49.079Z,2.30
2022-10-21T14:24:25.951Z,2.43
2022-10-21T14:26:55.485Z,2.30
2022-10-21T14:29:23.729Z,2.43
2022-10-21T14:31:54.214Z,2.20
2022-10-21T14:34:23.641Z,2.17
2022-10-21T14:37:01.465Z,1.70
2022-10-21T14:39:29.544Z,2.00
2022-10-21T14:42:02.512Z,2.10
2022-10-21T14:44:31.427Z,2.13
2022-10-21T14:46:59.520Z,1.93
2022-10-21T14:49:28.816Z,1.97
2022-10-21T14:52:01.782Z,2.00
2022-10-21T14:54:35.760Z,2.33
2022-10-21T14:57:05.559Z,1.80
2022-10-21T14:59:38.167Z,2.00
2022-10-21T15:02:06.580Z,2.23
2022-10-21T15:04:42.690Z,1.90
2022-10-21T15:07:18.723Z,2.03
2022-10-21T15:10:00.463Z,1.90
2022-10-21T15:12:33.276Z,1.80
2022-10-21T15:15:03.958Z,1.60
2022-10-21T15:17:32.077Z,2.20
2022-10-21T15:20:00.316Z,2.03
2022-10-21T15:22:29.584Z,2.20
2022-10-21T15:25:00.883Z,2.20
2022-10-21T15:27:42.955Z,1.80
2022-10-21T15:30:16.923Z,2.20
2022-10-21T15:32:45.031Z,2.23
2022-10-21T15:35:14.923Z,2.80
2022-10-21T15:37:42.995Z,28.50
2022-10-21T15:40:12.062Z,21.83
2022-10-21T15:42:41.503Z,29.43
2022-10-21T15:45:14.839Z,67.93
2022-10-21T15:47:42.871Z,38.10
2022-10-21T15:50:15.037Z,16.27
2022-10-21T15:52:43.137Z,11.47
2022-10-21T15:55:11.788Z,13.60
2022-10-21T15:57:42.159Z,11.63
2022-10-21T16:00:29.516Z,9.70
2022-10-21T16:02:58.579Z,9.03
2022-10-21T16:05:26.653Z,9.30
2022-10-21T16:07:54.686Z,8.87
2022-10-21T16:10:23.974Z,9.73
2022-10-21T16:12:53.523Z,10.23
2022-10-21T16:15:21.589Z,10.87
2022-10-21T16:17:50.626Z,10.00
2022-10-21T16:20:21.009Z,9.27
2022-10-21T16:22:49.116Z,10.30
2022-10-21T16:25:17.410Z,9.90
2022-10-21T16:27:55.761Z,9.30
2022-10-21T16:30:26.693Z,9.10
2022-10-21T16:32:54.801Z,9.63
2022-10-21T16:35:23.008Z,9.67
2022-10-21T16:37:51.495Z,9.67
2022-10-21T16:40:20.885Z,9.03
2022-10-21T16:42:59.508Z,9.40
2022-10-21T16:45:30.940Z,9.00
2022-10-21T16:48:02.311Z,9.60
2022-10-21T16:50:33.868Z,10.23
2022-10-21T16:53:04.133Z,10.03
2022-10-21T16:55:32.237Z,10.20
2022-10-21T16:58:00.527Z,10.27
2022-10-21T17:00:33.313Z,10.70
2022-10-21T17:03:07.500Z,10.73
2022-10-21T17:05:35.868Z,29.93
2022-10-21T17:08:06.873Z,39.20
2022-10-21T17:10:34.960Z,23.80
2022-10-21T17:13:12.054Z,20.07
2022-10-21T17:15:41.487Z,16.80
2022-10-21T17:18:13.131Z,14.43
2022-10-21T17:20:43.666Z,15.20
2022-10-21T17:23:11.838Z,14.70
2022-10-21T17:25:40.094Z,14.50
2022-10-21T17:28:08.940Z,15.23
2022-10-21T17:30:37.153Z,14.50
2022-10-21T17:33:09.373Z,14.60
2022-10-21T17:35:40.052Z,15.10
2022-10-21T17:38:08.111Z,14.00
2022-10-21T17:40:36.191Z,14.10
2022-10-21T17:43:04.294Z,14.30
2022-10-21T17:45:32.423Z,14.53
2022-10-21T17:48:00.599Z,13.80
2022-10-21T17:50:32.799Z,14.00
2022-10-21T17:53:00.870Z,14.10
2022-10-21T17:55:42.850Z,14.30
2022-10-21T17:58:10.942Z,14.50
2022-10-21T18:00:43.800Z,13.60
2022-10-21T18:03:12.878Z,13.33
2022-10-21T18:05:43.466Z,13.13
2022-10-21T18:08:11.565Z,14.03
2022-10-21T18:10:39.617Z,14.10
2022-10-21T18:13:07.680Z,14.37
2022-10-21T18:15:38.003Z,13.90
2022-10-21T18:18:06.098Z,13.63
2022-10-21T18:20:37.285Z,13.60
2022-10-21T18:23:06.748Z,13.17
2022-10-21T18:25:36.416Z,14.13
2022-10-21T18:28:04.604Z,13.00
2022-10-21T18:30:32.799Z,13.23
2022-10-21T18:33:00.856Z,13.30
2022-10-21T18:35:33.226Z,13.13
2022-10-21T18:38:04.108Z,13.40
2022-10-21T18:40:33.588Z,13.90
2022-10-21T18:43:01.665Z,13.13
2022-10-21T18:45:29.741Z,13.60
2022-10-21T18:47:57.918Z,13.83
2022-10-21T18:50:25.986Z,13.90
2022-10-21T18:52:54.237Z,13.70
2022-10-21T18:55:22.334Z,13.30
2022-10-21T18:57:51.794Z,12.20
2022-10-21T19:00:22.955Z,12.90
2022-10-21T19:02:51.012Z,12.93
2022-10-21T19:05:19.289Z,12.30
2022-10-21T19:07:47.524Z,12.60
2022-10-21T19:10:15.631Z,12.83
2022-10-21T19:12:44.159Z,12.03
2022-10-21T19:15:13.634Z,12.13
2022-10-21T19:20:33.228Z,12.97
2022-10-21T19:23:01.405Z,12.00
2022-10-21T19:25:29.987Z,11.67
2022-10-21T19:27:58.054Z,10.90
2022-10-21T19:30:27.773Z,11.73
2022-10-21T19:32:58.585Z,11.33
2022-10-21T19:35:32.641Z,11.77
2022-10-21T19:38:03.268Z,11.40
2022-10-21T19:40:36.040Z,11.23
2022-10-21T19:43:04.148Z,11.80
2022-10-21T19:45:35.144Z,11.40
2022-10-21T19:48:03.332Z,11.13
2022-10-21T19:50:31.520Z,11.93
2022-10-21T19:53:10.235Z,11.70
2022-10-21T19:55:38.302Z,10.60
2022-10-21T19:58:06.461Z,11.30
2022-10-21T20:00:36.765Z,11.70
2022-10-21T20:03:05.406Z,10.93
2022-10-21T20:05:36.995Z,11.07
2022-10-21T20:08:05.197Z,11.30
2022-10-21T20:10:33.500Z,11.20
2022-10-21T20:13:13.572Z,11.60
2022-10-21T20:16:01.069Z,9.80
2022-10-21T20:18:31.966Z,10.67
2022-10-21T20:21:02.734Z,10.20
2022-10-21T20:23:33.999Z,11.03
2022-10-21T20:26:02.143Z,10.53
2022-10-21T20:28:30.639Z,10.30
2022-10-21T20:31:00.898Z,10.63
2022-10-21T20:33:29.250Z,10.07
2022-10-21T20:35:57.308Z,9.77
2022-10-21T20:38:25.373Z,10.67
2022-10-21T20:41:02.760Z,9.63
2022-10-21T20:43:43.778Z,9.90
2022-10-21T20:46:23.624Z,9.77
2022-10-21T20:48:52.340Z,10.43
2022-10-21T20:51:21.658Z,10.33
2022-10-21T20:53:50.166Z,9.30
2022-10-21T20:56:18.222Z,10.17
2022-10-21T20:58:46.352Z,9.30
2022-10-21T21:01:18.160Z,11.10
2022-10-21T21:03:46.748Z,9.13
2022-10-21T21:06:15.126Z,9.80
2022-10-21T21:08:49.088Z,9.00
2022-10-21T21:11:21.736Z,9.70
2022-10-21T21:13:49.870Z,9.33
2022-10-21T21:16:20.202Z,9.10
2022-10-21T21:18:51.727Z,9.67
2022-10-21T21:21:20.406Z,8.80
2022-10-21T21:23:48.652Z,9.10
2022-10-21T21:26:17.698Z,9.70
2022-10-21T21:28:46.416Z,8.50
2022-10-21T21:31:14.825Z,9.63
2022-10-21T21:33:45.274Z,8.90
2022-10-21T21:36:16.811Z,8.80
2022-10-21T21:38:44.918Z,8.90
2022-10-21T21:41:13.507Z,8.67
2022-10-21T21:43:43.678Z,8.53
2022-10-21T21:46:11.901Z,7.60
2022-10-21T21:48:39.991Z,8.90
2022-10-21T21:51:10.787Z,8.70
2022-10-21T21:53:38.962Z,8.30
2022-10-21T21:56:08.234Z,7.93
2022-10-21T21:58:36.560Z,8.50
2022-10-21T22:01:10.232Z,9.10
2022-10-21T22:03:38.337Z,8.43
2022-10-21T22:06:06.631Z,8.30
2022-10-21T22:08:36.138Z,8.47
2022-10-21T22:11:08.654Z,7.97
2022-10-21T22:13:37.029Z,8.07
2022-10-21T22:16:06.125Z,7.73
2022-10-21T22:18:34.217Z,8.00
2022-10-21T22:21:02.598Z,7.37
2022-10-21T22:23:30.663Z,7.07
2022-10-21T22:26:00.178Z,6.93
2022-10-21T22:28:28.294Z,7.07
2022-10-21T22:30:58.035Z,7.03
2022-10-21T22:33:26.139Z,7.23
2022-10-21T22:35:55.165Z,7.10
2022-10-21T22:38:23.235Z,7.33
2022-10-21T22:40:53.915Z,7.07
2022-10-21T22:43:23.436Z,6.37
2022-10-21T22:45:51.524Z,6.60
2022-10-21T22:48:31.888Z,6.50
2022-10-21T22:51:05.841Z,6.60
2022-10-21T22:53:34.809Z,6.80
2022-10-21T22:56:14.057Z,6.90
2022-10-21T22:58:43.565Z,6.80
2022-10-21T23:01:11.683Z,6.80
2022-10-21T23:03:39.822Z,6.13
2022-10-21T23:06:08.218Z,6.90
2022-10-21T23:08:39.219Z,5.97
2022-10-21T23:11:07.293Z,5.90
2022-10-21T23:13:35.398Z,6.90
2022-10-21T23:16:05.297Z,6.57
2022-10-21T23:18:33.349Z,5.60
2022-10-21T23:21:01.421Z,6.23
2022-10-21T23:23:29.526Z,6.40
2022-10-21T23:25:58.109Z,6.00
2022-10-21T23:28:28.683Z,6.00
2022-10-21T23:30:57.227Z,5.50
2022-10-21T23:33:26.726Z,6.07
2022-10-21T23:35:54.826Z,5.90
2022-10-21T23:38:23.001Z,6.13
2022-10-21T23:40:51.101Z,5.90
2022-10-21T23:43:19.169Z,5.80
2022-10-21T23:45:48.816Z,6.33
2022-10-21T23:48:23.009Z,5.10
2022-10-21T23:50:55.436Z,5.37
2022-10-21T23:53:23.609Z,5.83
2022-10-21T23:55:51.742Z,5.77
2022-10-21T23:58:19.935Z,5.33
